Time;durP1;ratioP1;P1;durP2;ratioP2;P2;SDS_P1;SDS_P2;PMS_P1;PMS_P2;Temp;Humidity;BMP_temperature;BMP_pressure;BME280_temperature;BME280_humidity;BME280_pressure;Samples;Min_cycle;Max_cycle;Signal;HPM_P1;HPM_P2
2021/01/29 00:00:58;;;;;;;0.75;0.45;;;9.30;99.90;;;;;;1896533;76;21070;-74
2021/01/29 00:03:24;;;;;;;0.30;0.30;;;9.50;99.90;;;;;;1896414;76;21070;-74
2021/01/29 00:05:51;;;;;;;1.45;0.45;;;9.60;99.90;;;;;;1896451;76;21078;-74
2021/01/29 00:08:17;;;;;;;2.12;0.47;;;9.60;99.90;;;;;;1896431;76;21168;-74
2021/01/29 00:10:43;;;;;;;0.10;0.10;;;9.60;99.90;;;;;;1896405;76;21067;-73
2021/01/29 00:13:10;;;;;;;1.75;0.40;;;9.60;99.90;;;;;;1896394;76;21086;-73
2021/01/29 00:15:37;;;;;;;0.15;0.15;;;9.70;99.90;;;;;;1896392;76;21499;-73
2021/01/29 00:18:03;;;;;;;0.60;0.25;;;9.60;99.90;;;;;;1896369;76;21066;-73
2021/01/29 00:20:29;;;;;;;0.50;0.37;;;9.60;99.90;;;;;;1896388;76;21110;-73
2021/01/29 00:22:56;;;;;;;0.30;0.30;;;9.70;99.90;;;;;;1896372;76;21110;-73
2021/01/29 00:25:22;;;;;;;1.17;0.37;;;9.70;99.90;;;;;;1896365;76;21082;-73
2021/01/29 00:27:48;;;;;;;1.50;0.50;;;9.60;99.90;;;;;;1896387;76;21083;-73
2021/01/29 00:30:14;;;;;;;0.30;0.30;;;9.70;99.90;;;;;;1896497;76;21452;-73
2021/01/29 00:32:40;;;;;;;0.40;0.30;;;9.60;99.90;;;;;;1896397;76;21494;-73
2021/01/29 00:35:07;;;;;;;0.40;0.40;;;9.60;99.90;;;;;;1896402;76;21447;-73
2021/01/29 00:37:33;;;;;;;0.55;0.47;;;9.50;99.90;;;;;;1896423;76;21478;-72
2021/01/29 00:39:59;;;;;;;0.30;0.30;;;9.50;99.90;;;;;;1896332;76;21075;-73
2021/01/29 00:42:25;;;;;;;0.62;0.45;;;9.40;99.90;;;;;;1896383;76;21055;-73
2021/01/29 00:44:51;;;;;;;0.30;0.30;;;9.40;99.90;;;;;;1896539;76;21047;-73
2021/01/29 00:47:17;;;;;;;1.07;0.45;;;9.30;99.90;;;;;;1896392;76;21161;-73
2021/01/29 00:49:43;;;;;;;0.30;0.30;;;9.10;99.90;;;;;;1896483;76;21074;-73
2021/01/29 00:52:09;;;;;;;0.40;0.40;;;9.10;99.90;;;;;;1896575;76;21187;-73
2021/01/29 00:54:35;;;;;;;0.45;0.30;;;9.10;99.90;;;;;;1896642;76;21140;-73
2021/01/29 00:57:02;;;;;;;1.65;0.40;;;9.10;99.90;;;;;;1896642;76;21043;-73
2021/01/29 00:59:28;;;;;;;0.40;0.40;;;9.00;99.90;;;;;;1896634;76;21138;-73
2021/01/29 01:01:54;;;;;;;0.40;0.40;;;9.10;99.90;;;;;;1896315;76;21482;-73
2021/01/29 01:04:20;;;;;;;2.40;0.45;;;9.10;99.90;;;;;;1896478;76;21078;-73
2021/01/29 01:06:47;;;;;;;0.30;0.30;;;9.10;99.90;;;;;;1896336;76;21136;-74
2021/01/29 01:09:13;;;;;;;0.93;0.28;;;9.10;99.90;;;;;;1896553;76;21062;-73
2021/01/29 01:11:39;;;;;;;3.05;0.47;;;9.00;99.90;;;;;;1896400;76;21140;-73
2021/01/29 01:14:05;;;;;;;1.95;0.50;;;9.10;99.90;;;;;;1896414;76;21003;-73
2021/01/29 01:16:31;;;;;;;0.62;0.40;;;9.10;99.90;;;;;;1896363;76;21140;-73
2021/01/29 01:18:57;;;;;;;0.40;0.40;;;9.20;99.90;;;;;;1896459;76;21143;-73
2021/01/29 01:21:23;;;;;;;0.90;0.40;;;9.20;99.90;;;;;;1896512;76;21072;-73
2021/01/29 01:23:49;;;;;;;1.50;0.40;;;9.10;99.90;;;;;;1896487;76;21118;-73
2021/01/29 01:26:16;;;;;;;0.62;0.13;;;9.10;99.90;;;;;;1896600;76;21153;-73
2021/01/29 01:28:42;;;;;;;0.30;0.30;;;9.00;99.90;;;;;;1896506;76;21039;-73
2021/01/29 01:31:08;;;;;;;0.40;0.30;;;8.90;99.90;;;;;;1896502;76;21077;-73
2021/01/29 01:33:34;;;;;;;0.57;0.30;;;9.00;99.90;;;;;;1896484;76;21085;-73
2021/01/29 01:36:00;;;;;;;0.40;0.30;;;9.00;99.90;;;;;;1896587;76;21082;-73
2021/01/29 01:38:26;;;;;;;0.55;0.50;;;9.00;99.90;;;;;;1896476;76;21152;-73
2021/01/29 01:40:53;;;;;;;0.78;0.30;;;8.90;99.90;;;;;;1896492;76;21074;-73
2021/01/29 01:43:19;;;;;;;0.25;0.25;;;9.00;99.90;;;;;;1896572;76;21071;-73
2021/01/29 01:45:45;;;;;;;0.33;0.33;;;9.10;99.90;;;;;;1896476;76;21086;-73
2021/01/29 01:48:11;;;;;;;4.58;0.30;;;9.00;99.90;;;;;;1896626;76;21070;-73
2021/01/29 01:50:37;;;;;;;0.40;0.40;;;9.00;99.90;;;;;;1896492;76;21067;-73
2021/01/29 01:53:03;;;;;;;2.00;0.50;;;9.00;99.90;;;;;;1896507;75;21077;-73
2021/01/29 01:55:29;;;;;;;0.30;0.30;;;9.00;99.90;;;;;;1896589;76;21117;-73
2021/01/29 01:57:55;;;;;;;0.30;0.30;;;8.90;99.90;;;;;;1896467;76;21043;-73
2021/01/29 02:00:21;;;;;;;0.40;0.40;;;8.80;99.90;;;;;;1896315;76;21469;-74
2021/01/29 02:02:48;;;;;;;0.40;0.40;;;8.80;99.90;;;;;;1896556;76;21479;-73
2021/01/29 02:05:14;;;;;;;0.78;0.37;;;8.70;99.90;;;;;;1896328;76;21506;-74
2021/01/29 02:07:40;;;;;;;0.20;0.20;;;8.70;99.90;;;;;;1896532;75;21186;-74
2021/01/29 02:10:06;;;;;;;1.07;0.53;;;8.70;99.90;;;;;;1896295;76;21071;-73
2021/01/29 02:12:32;;;;;;;0.53;0.40;;;8.80;99.90;;;;;;1896515;76;21043;-73
2021/01/29 02:14:58;;;;;;;0.30;0.30;;;8.70;99.90;;;;;;1896356;76;21144;-73
2021/01/29 02:17:24;;;;;;;0.47;0.47;;;8.70;99.90;;;;;;1896514;76;21067;-74
2021/01/29 02:19:50;;;;;;;0.90;0.57;;;8.70;99.90;;;;;;1896524;76;21180;-73
2021/01/29 02:22:17;;;;;;;2.05;0.80;;;8.80;99.90;;;;;;1902327;74;21065;-73
2021/01/29 02:24:43;;;;;;;0.98;0.53;;;8.70;99.90;;;;;;1896566;76;21058;-74
2021/01/29 02:27:09;;;;;;;0.40;0.40;;;8.70;99.90;;;;;;1896553;75;21035;-73
2021/01/29 02:29:35;;;;;;;0.40;0.40;;;8.70;99.90;;;;;;1896515;76;21042;-74
2021/01/29 02:32:01;;;;;;;0.60;0.40;;;8.50;99.90;;;;;;1896458;76;21062;-73
2021/01/29 02:34:27;;;;;;;1.10;0.50;;;8.60;99.90;;;;;;1896487;76;21074;-74
2021/01/29 02:36:53;;;;;;;0.65;0.55;;;8.40;99.90;;;;;;1896481;76;21143;-74
2021/01/29 02:39:19;;;;;;;0.60;0.60;;;8.60;99.90;;;;;;1896543;76;21617;-74
2021/01/29 02:41:46;;;;;;;0.40;0.40;;;8.60;99.90;;;;;;1896467;76;21463;-74
2021/01/29 02:44:13;;;;;;;0.75;0.40;;;8.80;99.90;;;;;;1897573;75;21043;-74
2021/01/29 02:46:39;;;;;;;0.90;0.68;;;8.90;99.90;;;;;;1899029;75;21062;-73
2021/01/29 02:49:05;;;;;;;0.40;0.40;;;8.70;99.90;;;;;;1896353;76;21103;-74
2021/01/29 02:51:31;;;;;;;0.20;0.20;;;8.80;99.90;;;;;;1896579;76;21132;-74
2021/01/29 02:53:57;;;;;;;0.78;0.40;;;8.80;99.90;;;;;;1896336;76;21143;-74
2021/01/29 02:56:23;;;;;;;0.30;0.30;;;8.90;99.90;;;;;;1896542;76;21141;-73
2021/01/29 02:58:49;;;;;;;0.25;0.25;;;8.90;99.90;;;;;;1896441;76;21501;-73
2021/01/29 03:01:15;;;;;;;0.20;0.20;;;9.00;99.90;;;;;;1896345;76;21475;-73
2021/01/29 03:03:42;;;;;;;0.10;0.10;;;9.20;99.90;;;;;;1896439;75;21489;-73
2021/01/29 03:06:08;;;;;;;0.28;0.20;;;9.30;99.90;;;;;;1896652;74;21062;-73
2021/01/29 03:08:34;;;;;;;0.20;0.20;;;9.30;99.90;;;;;;1901475;74;21144;-74
2021/01/29 03:11:00;;;;;;;0.37;0.37;;;9.40;99.90;;;;;;1907713;73;21112;-74
2021/01/29 03:13:26;;;;;;;0.20;0.20;;;9.40;99.90;;;;;;1896569;76;21051;-73
2021/01/29 03:15:52;;;;;;;0.10;0.10;;;9.40;99.90;;;;;;1902999;74;21066;-73
2021/01/29 03:18:18;;;;;;;0.10;0.10;;;9.50;99.90;;;;;;1897841;74;21101;-73
2021/01/29 03:20:44;;;;;;;0.30;0.20;;;9.50;99.90;;;;;;1907981;74;21140;-74
2021/01/29 03:23:11;;;;;;;0.30;0.30;;;9.50;99.90;;;;;;1901719;74;21086;-74
2021/01/29 03:25:37;;;;;;;0.30;0.30;;;9.50;99.90;;;;;;1896437;76;21126;-74
2021/01/29 03:28:03;;;;;;;0.28;0.20;;;9.50;99.90;;;;;;1896558;76;21031;-75
2021/01/29 03:30:29;;;;;;;0.20;0.20;;;9.50;99.90;;;;;;1896390;76;21098;-74
2021/01/29 03:32:55;;;;;;;0.20;0.20;;;9.50;99.90;;;;;;1896524;76;21035;-74
2021/01/29 03:35:21;;;;;;;0.20;0.20;;;9.40;99.90;;;;;;1896571;76;21132;-75
2021/01/29 03:37:47;;;;;;;2.20;0.28;;;9.40;99.90;;;;;;1896545;76;21070;-74
2021/01/29 03:40:13;;;;;;;0.23;0.23;;;9.40;99.90;;;;;;1896538;76;21143;-74
2021/01/29 03:42:40;;;;;;;0.37;0.20;;;9.40;99.90;;;;;;1896535;76;21089;-74
2021/01/29 03:45:06;;;;;;;0.30;0.23;;;9.40;99.90;;;;;;1896411;76;21047;-73
2021/01/29 03:47:32;;;;;;;0.25;0.20;;;9.40;99.90;;;;;;1896427;76;21060;-73
2021/01/29 03:49:58;;;;;;;0.10;0.10;;;9.40;99.90;;;;;;1896539;76;21151;-74
2021/01/29 03:52:24;;;;;;;0.17;0.17;;;9.40;99.90;;;;;;1896313;75;21078;-74
2021/01/29 03:54:50;;;;;;;1.92;0.33;;;9.40;99.90;;;;;;1896522;76;21552;-74
2021/01/29 03:57:16;;;;;;;0.30;0.30;;;9.30;99.90;;;;;;1896522;76;21450;-73
2021/01/29 03:59:42;;;;;;;1.22;0.30;;;9.30;99.90;;;;;;1896388;76;21459;-73
2021/01/29 04:02:09;;;;;;;0.28;0.20;;;9.20;99.90;;;;;;1896429;75;21066;-73
2021/01/29 04:04:35;;;;;;;1.87;0.17;;;9.30;99.90;;;;;;1896424;76;21062;-73
2021/01/29 04:07:01;;;;;;;0.10;0.10;;;9.40;99.90;;;;;;1896377;76;21074;-73
2021/01/29 04:09:27;;;;;;;0.30;0.30;;;9.40;99.90;;;;;;1896353;75;21062;-73
2021/01/29 04:11:53;;;;;;;0.20;0.20;;;9.40;99.90;;;;;;1896402;76;21368;-73
2021/01/29 04:14:19;;;;;;;0.80;0.25;;;9.40;99.90;;;;;;1896402;76;21043;-73
2021/01/29 04:16:45;;;;;;;0.30;0.20;;;9.40;99.90;;;;;;1896409;76;21042;-73
2021/01/29 04:19:11;;;;;;;0.45;0.30;;;9.50;99.90;;;;;;1896431;76;21145;-74
2021/01/29 04:21:38;;;;;;;0.28;0.28;;;9.50;99.90;;;;;;1896488;76;21140;-73
2021/01/29 04:24:04;;;;;;;0.47;0.30;;;9.60;99.90;;;;;;1896527;76;21038;-73
2021/01/29 04:26:30;;;;;;;0.13;0.13;;;9.60;99.90;;;;;;1896507;76;21121;-73
2021/01/29 04:28:56;;;;;;;1.60;0.25;;;9.60;99.90;;;;;;1896305;76;21063;-73
2021/01/29 04:31:22;;;;;;;0.20;0.20;;;9.50;99.90;;;;;;1896489;76;21187;-73
2021/01/29 04:33:48;;;;;;;0.30;0.20;;;9.60;99.90;;;;;;1896401;75;21454;-74
2021/01/29 04:36:14;;;;;;;0.17;0.17;;;9.70;99.90;;;;;;1896431;76;21486;-73
2021/01/29 04:38:40;;;;;;;0.28;0.20;;;9.60;99.90;;;;;;1896410;76;21140;-73
2021/01/29 04:41:07;;;;;;;0.33;0.30;;;9.50;99.90;;;;;;1896425;75;21144;-73
2021/01/29 04:43:33;;;;;;;2.08;0.50;;;9.40;99.90;;;;;;1896559;76;21046;-73
2021/01/29 04:45:59;;;;;;;2.15;0.42;;;9.30;99.90;;;;;;1896586;76;21140;-73
2021/01/29 04:48:25;;;;;;;0.25;0.15;;;9.30;99.90;;;;;;1896591;76;21062;-73
2021/01/29 04:50:51;;;;;;;0.20;0.20;;;9.30;99.90;;;;;;1896480;76;21062;-73
2021/01/29 04:53:17;;;;;;;0.25;0.15;;;9.30;99.90;;;;;;1896486;76;21078;-73
2021/01/29 04:55:43;;;;;;;0.10;0.10;;;9.30;99.90;;;;;;1896496;76;21153;-73
2021/01/29 04:58:09;;;;;;;0.20;0.20;;;9.20;99.90;;;;;;1896510;76;21043;-73
2021/01/29 05:00:37;;;;;;;0.20;0.17;;;9.20;99.90;;;;;;1896455;76;21504;-73
2021/01/29 05:03:03;;;;;;;0.10;0.10;;;9.10;99.90;;;;;;1896539;76;21085;-74
2021/01/29 05:05:30;;;;;;;0.35;0.20;;;9.10;99.90;;;;;;1896627;76;21070;-73
2021/01/29 05:07:56;;;;;;;0.98;0.30;;;9.10;99.90;;;;;;1896403;76;21144;-74
2021/01/29 05:10:22;;;;;;;0.10;0.10;;;9.10;99.90;;;;;;1896578;76;21201;-74
2021/01/29 05:12:48;;;;;;;0.08;0.08;;;9.20;99.90;;;;;;1896380;76;21067;-74
2021/01/29 05:15:14;;;;;;;0.98;0.80;;;9.20;99.90;;;;;;1896569;76;21047;-74
2021/01/29 05:17:40;;;;;;;0.13;0.13;;;9.30;99.90;;;;;;1896415;76;21109;-74
2021/01/29 05:20:06;;;;;;;0.10;0.10;;;9.20;99.90;;;;;;1896604;76;21070;-74
2021/01/29 05:22:33;;;;;;;0.68;0.20;;;9.30;99.90;;;;;;1896714;76;21066;-74
2021/01/29 05:24:59;;;;;;;0.23;0.20;;;9.40;99.90;;;;;;1896705;76;21103;-74
2021/01/29 05:27:25;;;;;;;0.20;0.20;;;9.40;99.90;;;;;;1896694;76;21095;-74
2021/01/29 05:29:51;;;;;;;0.10;0.10;;;9.40;99.90;;;;;;1896726;76;21051;-74
2021/01/29 05:32:17;;;;;;;0.23;0.20;;;9.40;99.90;;;;;;1896379;76;21070;-73
2021/01/29 05:34:43;;;;;;;0.17;0.17;;;9.40;99.90;;;;;;1896617;76;21070;-74
2021/01/29 05:37:09;;;;;;;0.33;0.30;;;9.30;99.90;;;;;;1896387;76;21074;-74
2021/01/29 05:39:35;;;;;;;2.72;0.88;;;9.20;99.90;;;;;;1896562;76;21583;-75
2021/01/29 05:42:01;;;;;;;0.40;0.40;;;9.20;99.90;;;;;;1896460;76;21454;-74
2021/01/29 05:44:28;;;;;;;0.10;0.10;;;9.10;99.90;;;;;;1896467;76;21439;-74
2021/01/29 05:46:54;;;;;;;0.45;0.25;;;9.10;99.90;;;;;;1896445;76;21534;-75
2021/01/29 05:49:20;;;;;;;0.20;0.20;;;9.00;99.90;;;;;;1909632;74;21054;-73
2021/01/29 05:51:46;;;;;;;0.10;0.10;;;9.10;99.90;;;;;;1896350;76;21128;-74
2021/01/29 05:54:12;;;;;;;0.13;0.13;;;9.00;99.90;;;;;;1896508;75;21145;-74
2021/01/29 05:56:38;;;;;;;0.35;0.30;;;9.10;99.90;;;;;;1896390;76;21055;-74
2021/01/29 05:59:04;;;;;;;0.10;0.10;;;9.00;99.90;;;;;;1896579;76;21051;-74
2021/01/29 06:01:30;;;;;;;0.55;0.20;;;9.00;99.90;;;;;;1896449;76;21182;-74
2021/01/29 06:03:57;;;;;;;1.35;0.20;;;9.10;99.90;;;;;;1896596;76;21066;-74
2021/01/29 06:06:23;;;;;;;0.20;0.20;;;9.10;99.90;;;;;;1896462;76;21058;-74
2021/01/29 06:08:49;;;;;;;0.20;0.20;;;9.10;99.90;;;;;;1896505;76;21065;-75
2021/01/29 06:11:15;;;;;;;0.20;0.20;;;9.10;99.90;;;;;;1902302;74;21039;-75
2021/01/29 06:13:41;;;;;;;0.20;0.20;;;9.00;99.90;;;;;;1896481;76;21121;-74
2021/01/29 06:16:07;;;;;;;0.40;0.40;;;9.00;99.90;;;;;;1896466;76;21120;-74
2021/01/29 06:18:33;;;;;;;0.62;0.30;;;9.00;99.90;;;;;;1896441;76;21073;-74
2021/01/29 06:20:59;;;;;;;0.20;0.20;;;9.10;99.90;;;;;;1896429;76;21506;-74
2021/01/29 06:23:26;;;;;;;1.55;0.20;;;9.10;99.90;;;;;;1902361;74;21494;-74
2021/01/29 06:25:52;;;;;;;0.30;0.30;;;9.10;99.90;;;;;;1896428;76;21446;-74
2021/01/29 06:28:18;;;;;;;0.37;0.37;;;9.20;99.90;;;;;;1896522;76;21055;-74
2021/01/29 06:30:44;;;;;;;0.15;0.15;;;9.20;99.90;;;;;;1896373;76;21058;-75
2021/01/29 06:33:10;;;;;;;0.65;0.30;;;9.20;99.90;;;;;;1896421;75;21058;-74
2021/01/29 06:35:36;;;;;;;1.00;0.50;;;9.20;99.90;;;;;;1896423;76;21030;-74
2021/01/29 06:38:02;;;;;;;0.30;0.30;;;9.10;99.90;;;;;;1896543;76;21058;-74
2021/01/29 06:40:28;;;;;;;0.20;0.20;;;9.10;99.90;;;;;;1896345;75;21035;-75
2021/01/29 06:42:54;;;;;;;0.20;0.20;;;9.10;99.90;;;;;;1896423;76;21055;-75
2021/01/29 06:45:21;;;;;;;0.68;0.40;;;9.00;99.90;;;;;;1896418;76;21109;-75
2021/01/29 06:47:47;;;;;;;2.65;0.45;;;9.00;99.90;;;;;;1896476;76;21055;-75
2021/01/29 06:50:13;;;;;;;0.40;0.40;;;9.10;99.90;;;;;;1896546;75;21066;-75
2021/01/29 06:52:39;;;;;;;4.05;0.47;;;9.20;99.90;;;;;;1896392;76;21073;-75
2021/01/29 06:55:05;;;;;;;4.10;0.55;;;9.20;99.90;;;;;;1896479;76;21131;-76
2021/01/29 06:57:31;;;;;;;0.95;0.40;;;9.20;99.90;;;;;;1896382;76;21183;-76
2021/01/29 06:59:57;;;;;;;3.30;0.30;;;9.20;99.90;;;;;;1896457;76;21532;-75
2021/01/29 07:02:23;;;;;;;0.10;0.10;;;9.20;99.90;;;;;;1896355;76;21548;-75
2021/01/29 07:04:50;;;;;;;4.12;0.20;;;9.30;99.90;;;;;;1896425;76;21475;-76
2021/01/29 07:07:16;;;;;;;0.40;0.20;;;9.30;99.90;;;;;;1896353;76;21035;-75
2021/01/29 07:09:42;;;;;;;0.53;0.20;;;9.30;99.90;;;;;;1896524;76;21066;-76
2021/01/29 07:12:08;;;;;;;0.20;0.20;;;9.40;99.90;;;;;;1896416;76;21034;-75
2021/01/29 07:14:34;;;;;;;3.42;0.40;;;9.50;99.90;;;;;;1896421;76;21058;-76
2021/01/29 07:17:00;;;;;;;0.25;0.20;;;9.60;99.90;;;;;;1896438;76;21054;-75
2021/01/29 07:19:26;;;;;;;0.10;0.10;;;9.60;99.90;;;;;;1896376;76;21039;-75
2021/01/29 07:21:52;;;;;;;0.20;0.20;;;9.70;99.90;;;;;;1896480;76;21035;-75
2021/01/29 07:24:20;;;;;;;0.10;0.10;;;9.80;99.90;;;;;;1896460;76;21140;-75
2021/01/29 07:26:46;;;;;;;0.13;0.13;;;10.00;99.90;;;;;;1896291;76;21074;-75
2021/01/29 07:29:13;;;;;;;0.10;0.10;;;10.00;99.90;;;;;;1896345;76;21124;-74
2021/01/29 07:31:39;;;;;;;0.40;0.30;;;10.00;99.90;;;;;;1896389;76;21062;-74
2021/01/29 07:34:05;;;;;;;1.17;0.20;;;9.90;99.90;;;;;;1896519;76;21046;-74
2021/01/29 07:36:31;;;;;;;0.20;0.10;;;9.90;99.90;;;;;;1896629;76;21101;-74
2021/01/29 07:38:57;;;;;;;0.20;0.20;;;9.90;99.90;;;;;;1896613;76;21139;-74
2021/01/29 07:41:23;;;;;;;0.30;0.30;;;9.90;99.90;;;;;;1896393;76;21038;-74
2021/01/29 07:43:49;;;;;;;1.35;0.20;;;9.90;99.90;;;;;;1896547;76;21062;-74
2021/01/29 07:46:15;;;;;;;0.10;0.10;;;9.90;99.90;;;;;;1896189;76;21067;-73
2021/01/29 07:48:42;;;;;;;0.25;0.17;;;10.00;99.90;;;;;;1896407;75;21124;-73
2021/01/29 07:51:08;;;;;;;0.10;0.10;;;10.00;99.90;;;;;;1896279;76;21140;-73
2021/01/29 07:53:35;;;;;;;0.10;0.10;;;10.10;99.90;;;;;;1896433;76;21131;-73
2021/01/29 07:56:01;;;;;;;0.80;0.40;;;10.20;99.90;;;;;;1896231;76;21190;-74
2021/01/29 07:58:27;;;;;;;0.53;0.28;;;10.20;99.90;;;;;;1896436;76;21073;-73
2021/01/29 08:00:53;;;;;;;1.65;0.30;;;10.10;99.90;;;;;;1896279;76;21423;-74
2021/01/29 08:03:20;;;;;;;1.15;0.30;;;10.20;99.90;;;;;;1896374;76;21572;-73
2021/01/29 08:05:46;;;;;;;0.37;0.37;;;10.20;99.90;;;;;;1896354;76;21446;-74
2021/01/29 08:08:12;;;;;;;0.20;0.20;;;10.30;99.90;;;;;;1896272;76;21518;-73
2021/01/29 08:10:38;;;;;;;0.30;0.30;;;10.30;99.90;;;;;;1896316;76;21444;-75
2021/01/29 08:13:04;;;;;;;0.13;0.13;;;10.30;99.90;;;;;;1877930;75;21129;-74
2021/01/29 08:15:30;;;;;;;0.33;0.33;;;10.30;99.90;;;;;;1897838;74;21132;-74
2021/01/29 08:17:56;;;;;;;0.23;0.23;;;10.30;99.90;;;;;;1900095;74;21066;-74
2021/01/29 08:20:22;;;;;;;1.10;0.17;;;10.30;99.90;;;;;;1908726;74;21049;-78
2021/01/29 08:22:49;;;;;;;0.20;0.20;;;10.30;99.90;;;;;;1919532;74;21090;-75
2021/01/29 08:25:15;;;;;;;0.17;0.17;;;10.40;99.90;;;;;;1902121;74;21070;-75
2021/01/29 08:27:41;;;;;;;0.78;0.30;;;10.40;99.90;;;;;;1899446;74;21109;-75
2021/01/29 08:30:07;;;;;;;1.95;0.30;;;10.50;99.90;;;;;;1905492;74;21066;-76
2021/01/29 08:32:33;;;;;;;0.40;0.40;;;10.50;99.90;;;;;;1908838;73;21045;-75
2021/01/29 08:34:59;;;;;;;0.20;0.20;;;10.60;99.90;;;;;;1896252;76;21074;-76
2021/01/29 08:37:25;;;;;;;0.45;0.28;;;10.60;99.90;;;;;;1896439;76;21070;-77
2021/01/29 08:39:51;;;;;;;0.35;0.35;;;10.60;99.90;;;;;;1896347;76;21090;-79
2021/01/29 08:42:19;;;;;;;0.20;0.20;;;10.70;99.90;;;;;;1896396;76;21483;-82
2021/01/29 08:44:46;;;;;;;0.28;0.28;;;10.60;99.90;;;;;;1896328;76;21062;-80
2021/01/29 08:47:13;;;;;;;0.20;0.20;;;10.70;99.90;;;;;;1896450;76;21074;-79
2021/01/29 08:49:39;;;;;;;0.40;0.40;;;10.70;99.90;;;;;;1896438;76;21035;-81
2021/01/29 08:52:05;;;;;;;0.57;0.25;;;10.70;99.90;;;;;;1896353;76;21461;-80
2021/01/29 08:54:31;;;;;;;0.72;0.10;;;10.70;99.90;;;;;;1896319;76;21525;-78
2021/01/29 08:56:57;;;;;;;2.67;0.40;;;10.80;99.90;;;;;;1896380;75;21510;-79
2021/01/29 08:59:23;;;;;;;0.20;0.20;;;10.80;99.90;;;;;;1896317;76;21035;-83
2021/01/29 09:01:49;;;;;;;0.53;0.20;;;10.80;99.90;;;;;;1896261;76;21058;-78
2021/01/29 09:04:16;;;;;;;0.10;0.10;;;10.80;99.90;;;;;;1895977;75;21132;-76
2021/01/29 09:06:42;;;;;;;0.25;0.20;;;10.80;99.90;;;;;;1895889;76;21062;-77
2021/01/29 09:09:08;;;;;;;0.33;0.30;;;10.80;99.90;;;;;;1895858;76;21035;-77
2021/01/29 09:11:34;;;;;;;0.20;0.20;;;10.90;99.90;;;;;;1895749;76;21062;-79
2021/01/29 09:14:00;;;;;;;0.85;0.30;;;10.90;99.90;;;;;;1895987;76;21063;-79
2021/01/29 09:16:26;;;;;;;0.20;0.20;;;10.90;99.90;;;;;;1895827;76;21060;-81
2021/01/29 09:18:52;;;;;;;0.10;0.10;;;11.00;99.90;;;;;;1895872;76;21128;-80
2021/01/29 09:21:18;;;;;;;6.28;0.57;;;11.10;99.90;;;;;;1895987;76;21039;-80
2021/01/29 09:23:45;;;;;;;3.17;0.25;;;11.00;99.90;;;;;;1895780;76;21042;-80
2021/01/29 09:26:11;;;;;;;1.87;0.33;;;11.10;99.90;;;;;;1895789;76;21210;-81
2021/01/29 09:28:37;;;;;;;0.68;0.17;;;11.00;99.90;;;;;;1895996;75;21497;-80
2021/01/29 09:31:03;;;;;;;1.02;0.47;;;11.00;99.90;;;;;;1895883;76;21420;-78
2021/01/29 09:33:29;;;;;;;3.30;0.40;;;10.90;99.90;;;;;;1895942;76;21492;-80
2021/01/29 09:35:55;;;;;;;0.60;0.20;;;10.80;99.90;;;;;;1896080;76;21136;-79
2021/01/29 09:38:22;;;;;;;0.45;0.28;;;11.10;99.90;;;;;;1896054;76;21105;-79
2021/01/29 09:40:48;;;;;;;0.20;0.20;;;11.50;99.90;;;;;;1895871;76;21070;-78
2021/01/29 09:43:14;;;;;;;0.33;0.20;;;11.80;99.90;;;;;;1896052;76;21075;-80
2021/01/29 09:45:41;;;;;;;0.10;0.10;;;11.80;99.90;;;;;;1895866;76;21097;-79
2021/01/29 09:48:07;;;;;;;0.35;0.20;;;11.90;99.90;;;;;;1895991;76;21050;-76
2021/01/29 09:50:33;;;;;;;0.98;0.20;;;11.90;99.90;;;;;;1896024;76;21035;-76
2021/01/29 09:52:59;;;;;;;1.55;0.33;;;11.90;99.90;;;;;;1895862;76;21213;-77
2021/01/29 09:55:27;;;;;;;0.70;0.28;;;12.00;99.90;;;;;;1896150;76;21074;-82
2021/01/29 09:57:54;;;;;;;2.08;0.47;;;11.80;99.90;;;;;;1896150;76;21176;-80
2021/01/29 10:00:21;;;;;;;0.57;0.30;;;11.80;99.90;;;;;;1896049;76;21070;-75
2021/01/29 10:02:50;;;;;;;3.85;0.65;;;11.70;99.90;;;;;;1896059;75;21070;-78
2021/01/29 10:05:15;;;;;;;0.40;0.30;;;11.80;99.90;;;;;;1896023;76;21087;-77
2021/01/29 10:07:42;;;;;;;2.85;0.40;;;12.00;99.90;;;;;;1896252;76;21175;-77
2021/01/29 10:10:08;;;;;;;1.62;0.40;;;12.20;99.90;;;;;;1897120;76;21042;-79
2021/01/29 10:12:34;;;;;;;0.42;0.20;;;12.40;99.90;;;;;;1896777;76;21019;-80
2021/01/29 10:15:00;;;;;;;1.35;0.28;;;12.70;99.90;;;;;;1897212;76;21059;-81
2021/01/29 10:17:26;;;;;;;0.50;0.30;;;12.80;99.90;;;;;;1897060;76;21054;-80
2021/01/29 10:19:52;;;;;;;2.47;0.47;;;12.70;99.90;;;;;;1897224;76;21175;-79
2021/01/29 10:22:18;;;;;;;3.33;0.50;;;12.90;99.90;;;;;;1909252;74;21047;-80
2021/01/29 10:24:44;;;;;;;0.60;0.33;;;12.90;99.90;;;;;;1902346;74;21104;-80
2021/01/29 10:27:11;;;;;;;2.55;0.45;;;12.70;99.90;;;;;;1893822;75;21070;-81
2021/01/29 10:29:37;;;;;;;1.40;0.30;;;12.50;99.90;;;;;;1895964;76;21414;-80
2021/01/29 10:32:03;;;;;;;1.57;0.40;;;12.60;99.90;;;;;;1896524;76;21431;-80
2021/01/29 10:34:29;;;;;;;0.62;0.33;;;12.60;99.90;;;;;;1895881;76;21015;-80
2021/01/29 10:36:55;;;;;;;2.08;0.72;;;12.50;99.90;;;;;;1896123;76;21070;-81
2021/01/29 10:39:21;;;;;;;0.30;0.30;;;12.70;99.90;;;;;;1924142;74;21194;-81
2021/01/29 10:41:49;;;;;;;1.77;0.33;;;12.70;99.90;;;;;;1924175;74;21480;-81
2021/01/29 10:44:15;;;;;;;2.50;0.40;;;12.70;99.90;;;;;;1895976;74;21147;-79
2021/01/29 10:46:41;;;;;;;0.88;0.20;;;12.90;99.90;;;;;;1907277;74;21146;-79
2021/01/29 10:49:07;;;;;;;3.40;0.68;;;12.80;99.90;;;;;;1895868;76;21061;-80
2021/01/29 10:51:39;;;;;;;0.82;0.42;;;12.50;99.90;;;;;;1902659;74;21151;-80
2021/01/29 10:54:04;;;;;;;2.12;0.60;;;12.60;99.90;;;;;;1895692;76;21078;-80
2021/01/29 10:56:39;;;;;;;1.20;0.30;;;12.70;99.90;;;;;;1896617;76;21070;-80
2021/01/29 10:59:01;;;;;;;2.37;0.30;;;12.80;99.90;;;;;;1892681;75;21111;-80
2021/01/29 11:01:28;;;;;;;0.20;0.20;;;13.00;99.90;;;;;;1897778;76;21073;-81
2021/01/29 11:03:56;;;;;;;1.02;0.40;;;13.80;99.90;;;;;;1896062;76;21548;-81
2021/01/29 11:06:22;;;;;;;0.90;0.28;;;13.70;99.90;;;;;;1895885;76;21236;-81
2021/01/29 11:08:48;;;;;;;0.30;0.30;;;13.40;99.90;;;;;;1895974;76;21073;-81
2021/01/29 11:11:14;;;;;;;1.70;0.60;;;13.50;99.90;;;;;;1895958;76;21060;-78
2021/01/29 11:13:40;;;;;;;1.85;0.53;;;12.80;99.90;;;;;;1895831;76;21152;-79
2021/01/29 11:16:08;;;;;;;7.47;0.85;;;12.70;99.90;;;;;;1896046;76;21462;-80
2021/01/29 11:18:41;;;;;;;2.37;1.05;;;12.70;99.90;;;;;;1895946;76;21148;-79
2021/01/29 11:21:08;;;;;;;6.83;1.00;;;12.40;99.90;;;;;;1895867;76;21051;-80
2021/01/29 11:23:35;;;;;;;0.35;0.30;;;12.30;99.90;;;;;;1895830;76;21140;-79
2021/01/29 11:26:01;;;;;;;1.00;0.60;;;12.40;99.90;;;;;;1895963;76;21093;-81
2021/01/29 11:28:29;;;;;;;1.95;0.60;;;12.40;99.90;;;;;;1895999;76;21054;-80
2021/01/29 11:30:55;;;;;;;2.02;0.60;;;12.10;99.90;;;;;;1896126;76;21062;-80
2021/01/29 11:33:21;;;;;;;1.92;0.33;;;11.90;99.90;;;;;;1896451;76;21132;-79
2021/01/29 11:35:47;;;;;;;1.05;0.40;;;11.90;99.90;;;;;;1896280;76;21128;-80
2021/01/29 11:38:13;;;;;;;1.95;0.60;;;11.80;99.90;;;;;;1896163;76;21074;-79
2021/01/29 11:40:39;;;;;;;3.70;0.47;;;11.70;99.90;;;;;;1896476;76;21140;-80
2021/01/29 11:43:05;;;;;;;0.42;0.30;;;11.60;99.90;;;;;;1896168;76;21058;-81
2021/01/29 11:45:31;;;;;;;2.08;1.05;;;11.60;99.90;;;;;;1896251;76;21203;-79
2021/01/29 11:47:58;;;;;;;2.62;0.37;;;11.60;99.90;;;;;;1896193;76;21136;-79
2021/01/29 11:50:24;;;;;;;3.70;0.80;;;11.80;99.90;;;;;;1896001;76;21047;-79
2021/01/29 11:52:50;;;;;;;2.30;0.40;;;12.20;99.90;;;;;;1895871;76;21108;-80
2021/01/29 11:55:18;;;;;;;1.10;0.57;;;12.50;99.90;;;;;;1895751;76;21455;-80
2021/01/29 11:57:44;;;;;;;2.80;0.55;;;12.60;99.90;;;;;;1895843;76;21132;-79
2021/01/29 12:00:10;;;;;;;1.17;0.60;;;12.50;99.90;;;;;;1895785;76;21050;-79
2021/01/29 12:02:38;;;;;;;4.75;0.42;;;12.00;99.90;;;;;;1895728;76;21031;-79
2021/01/29 12:05:04;;;;;;;4.70;0.45;;;11.70;99.90;;;;;;1895801;76;21091;-80
2021/01/29 12:07:30;;;;;;;3.05;0.53;;;12.40;99.90;;;;;;1895763;76;21058;-79
2021/01/29 12:09:56;;;;;;;1.90;0.30;;;12.50;99.90;;;;;;1895900;76;21120;-80
2021/01/29 12:12:22;;;;;;;5.90;1.10;;;12.20;99.90;;;;;;1895908;76;21043;-80
2021/01/29 12:14:49;;;;;;;1.85;0.57;;;12.50;99.90;;;;;;1895936;76;21050;-79
2021/01/29 12:17:17;;;;;;;3.85;0.82;;;12.10;99.90;;;;;;1895848;76;21213;-79
2021/01/29 12:19:42;;;;;;;4.10;0.50;;;12.00;99.90;;;;;;1895659;76;21165;-79
2021/01/29 12:22:09;;;;;;;1.62;0.33;;;11.80;99.90;;;;;;1895687;76;21135;-80
2021/01/29 12:24:35;;;;;;;0.65;0.30;;;11.80;99.90;;;;;;1895905;76;21062;-80
2021/01/29 12:27:01;;;;;;;2.00;0.53;;;11.80;99.90;;;;;;1895862;76;21124;-79
2021/01/29 12:29:27;;;;;;;3.27;0.40;;;11.80;99.90;;;;;;1895855;76;21023;-79
2021/01/29 12:31:53;;;;;;;4.42;0.60;;;11.50;99.90;;;;;;1895857;76;21148;-79
2021/01/29 12:34:19;;;;;;;0.68;0.42;;;11.50;99.90;;;;;;1895884;76;21060;-80
2021/01/29 12:36:45;;;;;;;1.22;0.45;;;11.60;99.90;;;;;;1895903;76;21127;-80
2021/01/29 12:39:11;;;;;;;2.05;0.60;;;11.50;99.90;;;;;;1895949;76;21031;-80
2021/01/29 12:41:38;;;;;;;1.62;0.40;;;11.60;99.90;;;;;;1895745;76;21046;-78
2021/01/29 12:44:04;;;;;;;2.95;0.42;;;11.70;99.90;;;;;;1895709;76;21128;-79
2021/01/29 12:46:30;;;;;;;2.45;1.02;;;11.60;99.90;;;;;;1895863;76;21066;-80